createdAt,value
2022-10-20T00:00:34.046Z,5.70
2022-10-20T00:03:03.211Z,5.57
2022-10-20T00:05:31.040Z,5.40
2022-10-20T00:07:58.891Z,4.70
2022-10-20T00:10:26.724Z,5.40
2022-10-20T00:12:54.548Z,5.33
2022-10-20T00:15:22.309Z,5.30
2022-10-20T00:17:50.081Z,5.30
2022-10-20T00:20:19.478Z,5.00
2022-10-20T00:22:47.506Z,6.10
2022-10-20T00:25:15.305Z,5.27
2022-10-20T00:27:43.049Z,5.40
2022-10-20T00:30:11.651Z,6.03
2022-10-20T00:32:39.421Z,5.70
2022-10-20T00:35:07.833Z,5.13
2022-10-20T00:37:36.968Z,4.90
2022-10-20T00:40:05.394Z,5.30
2022-10-20T00:42:33.379Z,6.17
2022-10-20T00:45:01.769Z,5.30
2022-10-20T00:47:38.734Z,5.60
2022-10-20T00:50:11.263Z,5.77
2022-10-20T00:52:42.431Z,5.37
2022-10-20T00:55:12.774Z,5.70
2022-10-20T00:57:41.766Z,5.90
2022-10-20T01:00:10.583Z,6.23
2022-10-20T01:02:38.498Z,6.10
2022-10-20T01:05:07.674Z,5.50
2022-10-20T01:17:02.751Z,5.17
2022-10-20T01:20:04.838Z,5.33
2022-10-20T01:23:08.209Z,5.83
2022-10-20T01:25:51.422Z,5.50
2022-10-20T01:28:24.185Z,5.97
2022-10-20T01:30:57.708Z,6.27
2022-10-20T01:33:35.264Z,5.50
2022-10-20T01:36:08.528Z,6.60
2022-10-20T01:38:42.720Z,5.70
2022-10-20T01:41:15.320Z,5.60
2022-10-20T01:43:47.111Z,5.80
2022-10-20T01:46:18.588Z,6.23
2022-10-20T01:48:47.926Z,6.00
2022-10-20T01:51:15.846Z,5.67
2022-10-20T01:53:43.618Z,5.80
2022-10-20T01:56:17.484Z,5.77
2022-10-20T01:59:18.521Z,5.80
2022-10-20T02:02:06.381Z,6.87
2022-10-20T02:04:45.345Z,5.60
2022-10-20T02:07:18.679Z,5.97
2022-10-20T02:09:51.811Z,5.53
2022-10-20T02:12:24.673Z,5.90
2022-10-20T02:14:54.201Z,5.33
2022-10-20T02:17:23.525Z,5.67
2022-10-20T02:19:54.308Z,5.67
2022-10-20T02:22:23.488Z,5.30
2022-10-20T02:24:51.680Z,6.10
2022-10-20T02:27:25.493Z,6.03
2022-10-20T02:29:57.874Z,6.10
2022-10-20T02:32:28.401Z,6.40
2022-10-20T02:34:56.265Z,6.60
2022-10-20T02:37:24.108Z,6.27
2022-10-20T02:39:52.069Z,5.63
2022-10-20T02:42:19.906Z,6.37
2022-10-20T02:44:47.704Z,5.87
2022-10-20T02:47:15.509Z,6.80
2022-10-20T02:49:44.673Z,6.50
2022-10-20T02:52:12.454Z,6.17
2022-10-20T02:54:41.266Z,6.30
2022-10-20T02:57:09.053Z,5.97
2022-10-20T02:59:36.900Z,7.20
2022-10-20T03:02:04.907Z,7.13
2022-10-20T03:04:32.779Z,6.33
2022-10-20T03:07:01.936Z,6.20
2022-10-20T03:09:30.103Z,6.37
2022-10-20T03:11:57.918Z,6.67
2022-10-20T03:14:25.859Z,6.73
2022-10-20T03:16:53.636Z,6.90
2022-10-20T03:19:21.462Z,6.10
2022-10-20T03:21:49.645Z,5.50
2022-10-20T03:24:18.837Z,6.50
2022-10-20T03:26:46.666Z,6.70
2022-10-20T03:29:14.520Z,6.27
2022-10-20T03:31:42.406Z,6.77
2022-10-20T03:34:10.320Z,6.07
2022-10-20T03:36:38.095Z,6.30
2022-10-20T03:39:05.940Z,5.80
2022-10-20T03:41:35.139Z,6.87
2022-10-20T03:44:03.000Z,7.20
2022-10-20T03:46:30.748Z,6.13
2022-10-20T03:48:58.529Z,5.40
2022-10-20T03:51:26.288Z,5.47
2022-10-20T03:53:54.103Z,6.40
2022-10-20T03:56:22.831Z,5.90
2022-10-20T03:58:52.039Z,5.90
2022-10-20T04:01:21.887Z,6.07
2022-10-20T04:03:49.752Z,6.60
2022-10-20T04:06:17.511Z,6.60
2022-10-20T04:08:45.370Z,6.53
2022-10-20T04:11:13.372Z,6.20
2022-10-20T04:13:41.491Z,6.23
2022-10-20T04:16:11.220Z,6.70
2022-10-20T04:18:39.327Z,7.43
2022-10-20T04:21:07.492Z,6.63
2022-10-20T04:23:35.495Z,5.30
2022-10-20T04:26:09.289Z,7.50
2022-10-20T04:28:37.235Z,8.10
2022-10-20T04:31:05.554Z,7.67
2022-10-20T04:33:34.770Z,7.57
2022-10-20T04:36:05.117Z,7.60
2022-10-20T04:38:34.081Z,7.60
2022-10-20T04:41:04.378Z,7.77
2022-10-20T04:43:32.725Z,7.13
2022-10-20T04:46:03.920Z,7.67
2022-10-20T04:48:36.524Z,7.10
2022-10-20T04:51:05.868Z,7.97
2022-10-20T04:53:33.703Z,7.77
2022-10-20T04:56:02.006Z,7.50
2022-10-20T04:58:29.924Z,7.40
2022-10-20T05:01:01.962Z,7.40
2022-10-20T05:03:29.881Z,8.10
2022-10-20T05:06:09.421Z,7.57
2022-10-20T05:08:37.682Z,8.60
2022-10-20T05:11:05.631Z,7.77
2022-10-20T05:13:33.465Z,7.70
2022-10-20T05:16:01.238Z,7.00
2022-10-20T05:18:29.801Z,7.00
2022-10-20T05:21:08.351Z,8.27
2022-10-20T05:23:39.745Z,7.90
2022-10-20T05:26:09.941Z,8.83
2022-10-20T05:28:37.889Z,9.23
2022-10-20T05:31:07.573Z,8.63
2022-10-20T05:33:36.589Z,8.10
2022-10-20T05:36:09.009Z,8.57
2022-10-20T05:38:38.624Z,8.57
2022-10-20T05:41:07.899Z,10.30
2022-10-20T05:43:35.737Z,8.27
2022-10-20T05:46:03.980Z,9.23
2022-10-20T05:48:31.858Z,8.43
2022-10-20T05:51:11.878Z,8.70
2022-10-20T05:53:43.256Z,8.43
2022-10-20T05:56:13.849Z,8.23
2022-10-20T05:58:42.545Z,7.87
2022-10-20T06:01:16.847Z,8.40
2022-10-20T06:03:47.783Z,8.37
2022-10-20T06:06:16.001Z,8.93
2022-10-20T06:08:45.381Z,8.97
2022-10-20T06:11:14.690Z,8.40
2022-10-20T06:13:42.642Z,8.77
2022-10-20T06:16:12.510Z,8.53
2022-10-20T06:18:42.724Z,9.10
2022-10-20T06:21:12.961Z,9.43
2022-10-20T06:23:41.230Z,8.53
2022-10-20T06:26:17.372Z,7.73
2022-10-20T06:28:46.474Z,7.97
2022-10-20T06:31:16.097Z,8.27
2022-10-20T06:33:44.588Z,8.07
2022-10-20T06:36:13.254Z,9.43
2022-10-20T06:38:41.947Z,9.47
2022-10-20T06:41:13.554Z,9.40
2022-10-20T06:43:41.457Z,10.10
2022-10-20T06:46:12.068Z,8.43
2022-10-20T06:48:40.076Z,10.07
2022-10-20T06:51:11.100Z,10.17
2022-10-20T06:53:42.668Z,8.90
2022-10-20T06:56:17.429Z,9.57
2022-10-20T06:58:47.335Z,7.70
2022-10-20T07:01:17.447Z,9.40
2022-10-20T07:08:04.782Z,8.80
2022-10-20T07:10:32.569Z,10.60
2022-10-20T07:13:01.746Z,12.37
2022-10-20T07:15:29.552Z,9.10
2022-10-20T07:17:57.389Z,8.03
2022-10-20T07:20:25.245Z,9.37
2022-10-20T07:22:53.040Z,10.10
2022-10-20T07:25:21.946Z,8.50
2022-10-20T07:27:49.774Z,8.83
2022-10-20T07:30:18.924Z,8.60
2022-10-20T07:32:46.723Z,8.90
2022-10-20T07:35:14.488Z,9.03
2022-10-20T07:37:42.256Z,9.00
2022-10-20T07:40:11.551Z,8.43
2022-10-20T07:42:39.556Z,7.80
2022-10-20T07:45:08.796Z,9.33
2022-10-20T07:47:39.263Z,8.37
2022-10-20T07:50:08.471Z,8.43
2022-10-20T07:52:36.515Z,9.77
2022-10-20T07:55:17.664Z,9.23
2022-10-20T07:57:52.511Z,10.33
2022-10-20T08:00:20.479Z,9.13
2022-10-20T08:02:49.603Z,9.23
2022-10-20T08:05:17.693Z,8.63
2022-10-20T08:07:45.456Z,8.20
2022-10-20T08:10:13.462Z,7.80
2022-10-20T08:12:41.220Z,8.13
2022-10-20T08:15:09.829Z,7.80
2022-10-20T08:17:45.261Z,8.27
2022-10-20T08:20:20.385Z,8.70
2022-10-20T08:22:50.212Z,9.10
2022-10-20T08:25:18.348Z,8.33
2022-10-20T08:27:46.152Z,7.90
2022-10-20T08:30:26.673Z,7.43
2022-10-20T08:32:54.893Z,7.90
2022-10-20T08:35:24.885Z,7.87
2022-10-20T08:37:52.810Z,7.80
2022-10-20T08:40:23.733Z,8.20
2022-10-20T08:42:52.444Z,8.73
2022-10-20T08:45:22.321Z,8.33
2022-10-20T08:47:52.719Z,8.50
2022-10-20T08:50:21.851Z,8.43
2022-10-20T08:52:55.654Z,8.40
2022-10-20T08:55:28.297Z,9.93
2022-10-20T08:58:00.776Z,18.23
2022-10-20T09:00:31.006Z,21.13
2022-10-20T09:03:03.620Z,12.63
2022-10-20T09:05:35.797Z,10.27
2022-10-20T09:08:05.109Z,9.73
2022-10-20T09:10:36.301Z,9.10
2022-10-20T09:13:10.706Z,8.33
2022-10-20T09:15:39.669Z,8.47
2022-10-20T09:18:11.697Z,7.83
2022-10-20T09:20:45.353Z,7.70
2022-10-20T09:23:38.948Z,8.43
2022-10-20T09:26:03.705Z,8.23
2022-10-20T09:28:42.929Z,7.13
2022-10-20T09:31:25.249Z,7.70
2022-10-20T09:33:53.037Z,7.63
2022-10-20T09:36:22.118Z,7.67
2022-10-20T09:38:52.801Z,7.33
2022-10-20T09:41:22.361Z,7.37
2022-10-20T09:43:57.254Z,7.67
2022-10-20T09:46:29.667Z,8.43
2022-10-20T09:48:58.984Z,8.50
2022-10-20T09:51:28.622Z,8.20
2022-10-20T09:54:01.769Z,7.87
2022-10-20T09:56:33.275Z,7.30
2022-10-20T09:59:03.350Z,7.90
2022-10-20T10:01:31.344Z,6.60
2022-10-20T10:04:02.010Z,6.53
2022-10-20T10:06:33.703Z,6.63
2022-10-20T10:09:03.682Z,6.80
2022-10-20T10:11:35.103Z,6.40
2022-10-20T10:14:04.443Z,7.17
2022-10-20T10:16:41.773Z,6.30
2022-10-20T10:19:18.291Z,6.00
2022-10-20T10:21:49.704Z,4.47
2022-10-20T10:24:35.106Z,4.73
2022-10-20T10:27:03.179Z,4.37
2022-10-20T10:29:34.434Z,4.60
2022-10-20T10:32:03.723Z,4.17
2022-10-20T10:34:52.046Z,4.20
2022-10-20T10:39:50.044Z,5.03
2022-10-20T10:42:30.835Z,4.63
2022-10-20T10:45:06.087Z,5.40
2022-10-20T10:48:01.385Z,4.33
2022-10-20T10:50:35.516Z,6.20
2022-10-20T10:53:21.565Z,5.27
2022-10-20T10:56:01.044Z,4.20
2022-10-20T10:58:42.336Z,4.20
2022-10-20T11:01:25.861Z,3.83
2022-10-20T11:04:17.734Z,10.77
2022-10-20T11:06:55.587Z,5.63
2022-10-20T11:09:32.408Z,5.50
2022-10-20T11:12:22.194Z,11.80
2022-10-20T11:14:58.436Z,8.37
2022-10-20T11:17:44.558Z,5.47
2022-10-20T11:20:22.134Z,5.50
2022-10-20T11:23:08.981Z,5.17
2022-10-20T11:25:45.004Z,5.30
2022-10-20T11:28:28.752Z,5.97
2022-10-20T11:30:58.185Z,6.37
2022-10-20T11:33:34.142Z,6.10
2022-10-20T11:36:09.588Z,5.57
2022-10-20T11:38:43.392Z,5.63
2022-10-20T11:41:19.056Z,5.40
2022-10-20T11:43:54.246Z,5.13
2022-10-20T11:46:27.891Z,6.13
2022-10-20T11:49:00.227Z,5.13
2022-10-20T11:51:53.908Z,5.70
2022-10-20T11:54:39.778Z,5.97
2022-10-20T11:57:18.094Z,6.40
2022-10-20T12:03:28.151Z,5.30
2022-10-20T12:06:20.426Z,5.30
2022-10-20T12:09:05.620Z,5.20
2022-10-20T12:11:38.995Z,5.43
2022-10-20T12:14:20.071Z,6.37
2022-10-20T12:17:14.065Z,5.50
2022-10-20T12:19:43.259Z,4.60
2022-10-20T12:22:39.807Z,6.40
2022-10-20T12:25:35.790Z,5.57
2022-10-20T12:28:45.652Z,5.30
2022-10-20T12:31:13.445Z,9.57
2022-10-20T12:34:00.208Z,7.70
2022-10-20T12:36:34.139Z,8.33
2022-10-20T12:39:19.054Z,5.67
2022-10-20T12:41:57.578Z,5.83
2022-10-20T12:44:27.416Z,12.50
2022-10-20T12:46:59.355Z,8.80
2022-10-20T12:49:33.244Z,6.60
2022-10-20T12:52:03.664Z,5.17
2022-10-20T12:54:37.892Z,5.10
2022-10-20T12:57:26.283Z,5.63
2022-10-20T12:59:54.519Z,5.20
2022-10-20T13:02:52.329Z,5.53
2022-10-20T13:05:42.684Z,5.07
2022-10-20T13:08:31.171Z,5.13
2022-10-20T13:11:32.658Z,5.33
2022-10-20T13:14:14.632Z,5.57
2022-10-20T13:16:49.364Z,5.23
2022-10-20T13:19:22.541Z,5.33
2022-10-20T13:21:50.745Z,4.80
2022-10-20T13:24:27.291Z,5.87
2022-10-20T13:26:59.670Z,4.67
2022-10-20T13:29:32.251Z,5.10
2022-10-20T13:34:51.751Z,5.30
2022-10-20T13:37:31.141Z,4.50
2022-10-20T13:40:11.499Z,4.70
2022-10-20T13:42:50.576Z,14.07
2022-10-20T13:45:29.638Z,15.40
2022-10-20T13:48:11.717Z,6.10
2022-10-20T13:50:43.541Z,5.20
2022-10-20T13:53:20.599Z,5.70
2022-10-20T13:56:00.355Z,4.73
2022-10-20T13:58:28.420Z,5.17
2022-10-20T14:01:02.781Z,4.87
2022-10-20T14:03:32.286Z,4.10
2022-10-20T14:06:00.238Z,3.93
2022-10-20T14:08:28.182Z,6.60
2022-10-20T14:11:00.704Z,11.03
2022-10-20T14:13:31.746Z,13.30
2022-10-20T14:16:00.960Z,17.67
2022-10-20T14:18:30.793Z,6.13
2022-10-20T14:21:02.711Z,5.63
2022-10-20T14:23:35.829Z,4.33
2022-10-20T14:26:07.551Z,4.50
2022-10-20T14:28:37.467Z,3.83
2022-10-20T14:31:06.293Z,4.20
2022-10-20T14:33:37.291Z,4.47
2022-10-20T14:36:06.313Z,4.40
2022-10-20T14:38:37.900Z,4.87
2022-10-20T14:41:09.370Z,4.60
2022-10-20T14:43:40.097Z,5.07
2022-10-20T14:46:10.943Z,5.27
2022-10-20T14:48:42.403Z,5.27
2022-10-20T14:51:31.112Z,5.00
2022-10-20T14:54:26.894Z,4.40
2022-10-20T14:56:58.309Z,5.50
2022-10-20T14:59:28.036Z,5.27
2022-10-20T15:02:01.477Z,5.70
2022-10-20T15:04:33.435Z,5.40
2022-10-20T15:07:07.467Z,4.60
2022-10-20T15:09:40.455Z,4.90
2022-10-20T15:12:16.706Z,4.57
2022-10-20T15:14:47.819Z,4.30
2022-10-20T15:17:36.206Z,4.10
2022-10-20T15:20:33.396Z,3.70
2022-10-20T15:23:02.744Z,4.63
2022-10-20T15:25:32.744Z,5.27
2022-10-20T15:28:01.899Z,4.50
2022-10-20T15:30:30.877Z,5.03
2022-10-20T15:32:58.915Z,4.27
2022-10-20T15:35:30.663Z,8.00
2022-10-20T15:37:58.537Z,5.43
2022-10-20T15:40:26.359Z,4.23
2022-10-20T15:42:54.225Z,4.10
2022-10-20T15:45:25.818Z,3.83
2022-10-20T15:47:53.602Z,6.60
2022-10-20T15:50:24.160Z,8.00
2022-10-20T15:52:54.134Z,5.20
2022-10-20T15:55:26.310Z,4.60
2022-10-20T15:57:55.402Z,4.20
2022-10-20T16:00:27.080Z,11.20
2022-10-20T16:02:55.245Z,9.03
2022-10-20T16:05:24.864Z,8.30
2022-10-20T16:07:54.168Z,5.67
2022-10-20T16:10:23.404Z,5.33
2022-10-20T16:12:51.656Z,6.00
2022-10-20T16:15:19.941Z,5.80
2022-10-20T16:20:21.869Z,6.83
2022-10-20T16:22:49.662Z,7.50
2022-10-20T16:25:17.734Z,9.40
2022-10-20T16:27:45.659Z,9.83
2022-10-20T16:30:13.603Z,10.03
2022-10-20T16:32:41.857Z,12.47
2022-10-20T16:35:11.564Z,12.90
2022-10-20T16:37:39.509Z,15.57
2022-10-20T16:40:08.458Z,14.53
2022-10-20T16:42:36.290Z,12.73
2022-10-20T16:45:05.569Z,12.80
2022-10-20T16:47:33.404Z,12.23
2022-10-20T16:50:01.252Z,11.43
2022-10-20T16:52:30.440Z,10.60
2022-10-20T16:54:58.345Z,9.73
2022-10-20T16:57:26.528Z,9.70
2022-10-20T16:59:54.329Z,10.00
2022-10-20T17:02:23.234Z,9.20
2022-10-20T17:04:52.279Z,7.77
2022-10-20T17:07:20.098Z,9.00
2022-10-20T17:09:49.229Z,9.40
2022-10-20T17:12:17.309Z,9.23
2022-10-20T17:14:45.100Z,8.27
2022-10-20T17:17:12.883Z,8.20
2022-10-20T17:19:43.241Z,7.70
2022-10-20T17:24:43.891Z,7.80
2022-10-20T17:27:13.016Z,7.67
2022-10-20T17:29:40.866Z,7.10
2022-10-20T17:32:08.680Z,7.10
2022-10-20T17:34:36.536Z,6.90
2022-10-20T17:37:04.347Z,6.83
2022-10-20T17:39:32.135Z,6.70
2022-10-20T17:42:00.045Z,6.63
2022-10-20T17:44:29.166Z,16.27
2022-10-20T17:46:59.072Z,11.90
2022-10-20T17:49:27.864Z,9.80
2022-10-20T17:51:56.305Z,9.50
2022-10-20T17:54:24.239Z,8.77
2022-10-20T17:56:52.480Z,10.40
2022-10-20T17:59:20.713Z,11.60
2022-10-20T18:01:49.896Z,17.30
2022-10-20T18:04:18.449Z,16.10
2022-10-20T18:06:46.782Z,17.37
2022-10-20T18:09:16.390Z,18.10
2022-10-20T18:11:46.044Z,16.23
2022-10-20T18:14:13.897Z,15.33
2022-10-20T18:16:42.223Z,15.43
2022-10-20T18:19:15.139Z,17.20
2022-10-20T18:21:43.524Z,17.10
2022-10-20T18:24:13.751Z,33.10
2022-10-20T18:26:41.628Z,30.43
2022-10-20T18:29:11.069Z,35.70
2022-10-20T18:31:40.701Z,52.33
2022-10-20T18:34:11.723Z,50.70
2022-10-20T18:36:44.935Z,43.03
2022-10-20T18:39:14.641Z,38.33
2022-10-20T18:41:43.771Z,36.17
2022-10-20T18:44:13.479Z,21.80
2022-10-20T18:46:42.141Z,22.47
2022-10-20T18:49:14.011Z,20.27
2022-10-20T18:51:46.124Z,24.83
2022-10-20T18:54:15.042Z,24.63
2022-10-20T18:56:43.633Z,21.93
2022-10-20T18:59:16.272Z,21.87
2022-10-20T19:01:45.049Z,21.50
2022-10-20T19:04:13.283Z,21.37
2022-10-20T19:06:43.518Z,21.00
2022-10-20T19:09:14.401Z,19.83
2022-10-20T19:11:44.461Z,22.30
2022-10-20T19:14:13.369Z,24.50
2022-10-20T19:16:44.766Z,23.40
2022-10-20T19:19:13.210Z,22.80
2022-10-20T19:21:41.035Z,24.90
2022-10-20T19:24:14.025Z,23.97
2022-10-20T19:26:52.512Z,22.07
2022-10-20T19:29:30.706Z,21.70
2022-10-20T19:32:00.115Z,23.30
2022-10-20T19:34:29.781Z,23.27
2022-10-20T19:36:57.805Z,19.47
2022-10-20T19:39:29.973Z,18.50
2022-10-20T19:41:59.718Z,19.23
2022-10-20T19:44:28.553Z,18.70
2022-10-20T19:46:57.046Z,19.67
2022-10-20T19:49:25.993Z,21.20
2022-10-20T19:51:54.020Z,22.53
2022-10-20T19:54:21.952Z,17.70
2022-10-20T19:56:51.233Z,16.73
2022-10-20T19:59:19.518Z,16.40
2022-10-20T20:01:48.424Z,17.17
2022-10-20T20:04:16.653Z,16.63
2022-10-20T20:06:44.453Z,16.10
2022-10-20T20:09:15.453Z,16.40
2022-10-20T20:11:44.061Z,15.27
2022-10-20T20:14:15.458Z,15.43
2022-10-20T20:16:46.065Z,14.60
2022-10-20T20:19:15.581Z,15.40
2022-10-20T20:21:43.415Z,15.00
2022-10-20T20:24:12.993Z,14.20
2022-10-20T20:26:40.842Z,15.43
2022-10-20T20:29:08.665Z,15.20
2022-10-20T20:31:38.020Z,16.37
2022-10-20T20:34:05.887Z,15.80
2022-10-20T20:36:33.743Z,15.50
2022-10-20T20:39:02.081Z,11.77
2022-10-20T20:41:31.190Z,13.97
2022-10-20T20:44:01.028Z,13.83
2022-10-20T20:46:31.100Z,12.73
2022-10-20T20:49:02.135Z,13.30
2022-10-20T20:51:33.325Z,12.87
2022-10-20T20:54:01.284Z,12.30
2022-10-20T20:56:29.106Z,12.67
2022-10-20T20:58:56.865Z,11.90
2022-10-20T21:01:27.373Z,12.57
2022-10-20T21:03:56.228Z,11.87
2022-10-20T21:06:33.247Z,11.87
2022-10-20T21:09:06.994Z,12.33
2022-10-20T21:11:34.962Z,11.77
2022-10-20T21:14:02.912Z,11.27
2022-10-20T21:16:32.248Z,11.47
2022-10-20T21:19:02.976Z,13.60
2022-10-20T21:21:33.907Z,11.30
2022-10-20T21:24:02.909Z,11.90
2022-10-20T21:26:31.492Z,12.37
2022-10-20T21:28:59.766Z,10.93
2022-10-20T21:31:29.325Z,11.20
2022-10-20T21:33:59.459Z,12.23
2022-10-20T21:36:29.787Z,12.07
2022-10-20T21:39:00.436Z,12.60
2022-10-20T21:41:30.100Z,12.23
2022-10-20T21:43:59.667Z,11.80
2022-10-20T21:46:29.442Z,11.63
2022-10-20T21:49:00.313Z,11.80
2022-10-20T21:51:30.108Z,11.73
2022-10-20T21:54:01.126Z,11.80
2022-10-20T21:56:29.672Z,11.43
2022-10-20T21:58:57.476Z,12.87
2022-10-20T22:01:26.257Z,11.90
2022-10-20T22:03:55.453Z,13.27
2022-10-20T22:06:25.624Z,12.70
2022-10-20T22:08:55.766Z,11.30
2022-10-20T22:11:27.414Z,12.27
2022-10-20T22:13:55.432Z,12.33
2022-10-20T22:16:25.506Z,12.90
2022-10-20T22:18:55.891Z,12.27
2022-10-20T22:21:24.324Z,12.00
2022-10-20T22:23:53.751Z,12.17
2022-10-20T22:26:22.083Z,13.07
2022-10-20T22:28:52.419Z,13.10
2022-10-20T22:31:20.255Z,12.00
2022-10-20T22:33:48.045Z,11.70
2022-10-20T22:36:15.890Z,11.73
2022-10-20T22:38:43.649Z,11.60
2022-10-20T22:41:11.547Z,11.87
2022-10-20T22:43:39.720Z,12.07
2022-10-20T22:46:09.209Z,11.50
2022-10-20T22:48:37.348Z,11.00
2022-10-20T22:51:06.255Z,10.60
2022-10-20T22:53:34.134Z,11.17
2022-10-20T22:56:06.618Z,11.03
2022-10-20T22:58:34.477Z,10.57
2022-10-20T23:01:06.924Z,11.40
2022-10-20T23:03:36.121Z,10.70
2022-10-20T23:06:07.623Z,11.80
2022-10-20T23:08:39.376Z,10.90
2022-10-20T23:11:07.156Z,10.87
2022-10-20T23:13:35.003Z,10.70
2022-10-20T23:16:03.001Z,10.13
2022-10-20T23:18:30.931Z,10.23
2022-10-20T23:21:00.093Z,9.60
2022-10-20T23:23:28.294Z,9.87
2022-10-20T23:25:57.574Z,10.90
2022-10-20T23:28:27.444Z,11.20
2022-10-20T23:31:05.771Z,11.07
2022-10-20T23:33:33.696Z,10.83
2022-10-20T23:36:02.924Z,9.77
2022-10-20T23:38:30.849Z,11.10
2022-10-20T23:40:58.717Z,10.17
2022-10-20T23:43:26.893Z,10.13
2022-10-20T23:45:54.856Z,10.00
2022-10-20T23:48:22.738Z,9.87
2022-10-20T23:50:50.543Z,10.10
2022-10-20T23:53:19.685Z,10.87
2022-10-20T23:55:47.512Z,10.13
2022-10-20T23:58:15.265Z,9.40
